Time;durP1;ratioP1;P1;durP2;ratioP2;P2;SDS_P1;SDS_P2;PMS_P1;PMS_P2;Temp;Humidity;BMP_temperature;BMP_pressure;BME280_temperature;BME280_humidity;BME280_pressure;Samples;Min_cycle;Max_cycle;Signal;HPM_P1;HPM_P2
2022/08/06 00:01:38;;;;;;;12.02;4.72;;;12.60;99.90;;;;;;4980699;28;20073;-90
2022/08/06 00:04:13;;;;;;;11.75;5.03;;;12.60;99.90;;;;;;4976430;28;20038;-90
2022/08/06 00:06:39;;;;;;;11.90;4.45;;;12.60;99.90;;;;;;4992818;28;20058;-91
2022/08/06 00:09:04;;;;;;;10.80;4.75;;;12.50;99.90;;;;;;4993625;28;20053;-90
2022/08/06 00:11:30;;;;;;;10.60;4.57;;;12.50;99.90;;;;;;5002093;28;20041;-90
2022/08/06 00:13:55;;;;;;;9.93;4.80;;;12.50;99.90;;;;;;5000007;28;20050;-90
2022/08/06 00:16:24;;;;;;;12.25;4.70;;;12.90;99.90;;;;;;4993379;28;20042;-90
2022/08/06 00:18:50;;;;;;;13.85;4.65;;;12.40;99.90;;;;;;5006045;28;20069;-91
2022/08/06 00:21:15;;;;;;;13.05;4.80;;;12.30;99.90;;;;;;4997510;28;20038;-91
2022/08/06 00:23:41;;;;;;;9.98;4.38;;;12.30;99.90;;;;;;4994986;28;20047;-90
2022/08/06 00:26:07;;;;;;;9.65;4.10;;;12.80;99.90;;;;;;4975775;28;20090;-90
2022/08/06 00:28:32;;;;;;;12.48;4.30;;;12.30;99.90;;;;;;4997640;28;20050;-90
2022/08/06 00:31:07;;;;;;;11.05;3.90;;;12.20;99.90;;;;;;4976500;28;20046;-89
2022/08/06 00:33:33;;;;;;;10.00;3.85;;;12.50;99.90;;;;;;4993240;28;20042;-90
2022/08/06 00:35:58;;;;;;;12.35;4.35;;;12.20;99.90;;;;;;4993678;28;20042;-91
2022/08/06 00:38:24;;;;;;;10.93;4.07;;;12.10;99.90;;;;;;4976047;28;20395;-90
2022/08/06 00:40:50;;;;;;;10.60;4.10;;;12.10;99.90;;;;;;4975170;28;20425;-89
2022/08/06 00:43:16;;;;;;;12.45;4.20;;;12.10;99.90;;;;;;4975708;28;20042;-92
2022/08/06 00:45:42;;;;;;;11.45;4.00;;;12.20;99.90;;;;;;4975351;28;20093;-89
2022/08/06 00:48:08;;;;;;;9.13;3.92;;;12.00;99.90;;;;;;4992427;28;20129;-91
2022/08/06 00:50:34;;;;;;;9.00;3.88;;;12.60;99.90;;;;;;4976158;28;20084;-90
2022/08/06 00:53:00;;;;;;;12.23;3.90;;;12.60;99.90;;;;;;4992965;28;20037;-89
2022/08/06 00:55:26;;;;;;;11.00;3.88;;;11.90;99.90;;;;;;4975127;28;20050;-90
2022/08/06 00:57:51;;;;;;;11.07;3.60;;;11.90;99.90;;;;;;4975589;28;20045;-88
2022/08/06 01:00:17;;;;;;;10.07;3.80;;;11.80;99.90;;;;;;4977681;28;20077;-89
2022/08/06 01:02:43;;;;;;;8.75;3.42;;;11.80;99.90;;;;;;4978613;28;20046;-89
2022/08/06 01:05:08;;;;;;;11.07;3.78;;;11.80;99.90;;;;;;4979589;28;20046;-90
2022/08/06 01:07:34;;;;;;;10.73;3.50;;;11.80;99.90;;;;;;4997202;28;20049;-90
2022/08/06 01:10:00;;;;;;;10.52;3.58;;;11.70;99.90;;;;;;4996179;28;20046;-89
2022/08/06 01:12:27;;;;;;;9.07;3.72;;;11.70;99.90;;;;;;4979851;28;20038;-89
2022/08/06 01:14:52;;;;;;;10.63;3.95;;;11.60;99.90;;;;;;4978775;28;20046;-89
2022/08/06 01:17:32;;;;;;;12.10;3.53;;;11.70;99.90;;;;;;4980736;28;20050;-91
2022/08/06 01:20:06;;;;;;;9.02;3.90;;;11.70;99.90;;;;;;4982775;28;20054;-90
2022/08/06 01:23:16;;;;;;;11.52;3.80;;;11.70;99.90;;;;;;4982270;28;20076;-89
2022/08/06 01:26:19;;;;;;;11.35;3.80;;;11.60;99.90;;;;;;5011490;28;20061;-89
2022/08/06 01:28:54;;;;;;;10.55;3.95;;;11.50;99.90;;;;;;4997575;28;20050;-90
2022/08/06 01:31:51;;;;;;;10.30;4.03;;;11.40;99.90;;;;;;4996324;28;20054;-89
2022/08/06 01:34:41;;;;;;;10.82;3.70;;;11.40;99.90;;;;;;4959609;28;20064;-90
2022/08/06 01:37:28;;;;;;;9.20;3.97;;;11.30;99.90;;;;;;4995180;28;20112;-90
2022/08/06 01:39:59;;;;;;;8.63;3.80;;;11.20;99.90;;;;;;4996753;28;20042;-90
2022/08/06 01:42:28;;;;;;;10.48;4.18;;;11.20;99.90;;;;;;4979255;28;20038;-88
2022/08/06 01:44:56;;;;;;;11.77;3.92;;;11.10;99.90;;;;;;4995779;28;20046;-89
2022/08/06 01:47:23;;;;;;;10.25;3.80;;;11.10;99.90;;;;;;4996727;28;20103;-89
2022/08/06 01:49:52;;;;;;;9.68;3.85;;;11.00;99.90;;;;;;4978855;28;20054;-89
2022/08/06 01:52:19;;;;;;;10.38;4.25;;;10.90;99.90;;;;;;4995628;28;20502;-90
2022/08/06 01:54:49;;;;;;;12.68;4.50;;;10.90;99.90;;;;;;4996303;28;20042;-89
2022/08/06 01:57:18;;;;;;;10.35;4.05;;;10.90;99.90;;;;;;4978333;28;20107;-90
2022/08/06 01:59:48;;;;;;;9.77;4.40;;;10.80;99.90;;;;;;4978942;28;20128;-90
2022/08/06 02:02:19;;;;;;;12.38;4.70;;;10.80;99.90;;;;;;4995738;28;20132;-89
2022/08/06 02:04:47;;;;;;;10.07;4.22;;;10.70;99.90;;;;;;4977112;28;20379;-90
2022/08/06 02:07:15;;;;;;;11.02;4.15;;;10.70;99.90;;;;;;4977752;28;20043;-90
2022/08/06 02:09:44;;;;;;;11.98;4.35;;;10.70;99.90;;;;;;4996116;28;20070;-89
2022/08/06 02:12:16;;;;;;;11.60;4.80;;;10.70;99.90;;;;;;4995188;28;20089;-89
2022/08/06 02:14:58;;;;;;;9.75;4.70;;;10.80;99.90;;;;;;4995914;28;20042;-89
2022/08/06 02:17:27;;;;;;;13.60;4.90;;;10.60;99.90;;;;;;4982263;28;20058;-89
2022/08/06 02:19:55;;;;;;;12.68;4.75;;;10.60;99.90;;;;;;4978031;28;20050;-89
2022/08/06 02:22:22;;;;;;;11.77;4.88;;;10.60;99.90;;;;;;4978193;28;20070;-89
2022/08/06 02:24:49;;;;;;;10.30;4.65;;;10.60;99.90;;;;;;4981760;28;20113;-90
2022/08/06 02:27:16;;;;;;;9.95;4.47;;;10.60;99.90;;;;;;4995203;28;20125;-90
2022/08/06 02:29:45;;;;;;;10.52;4.63;;;10.50;99.90;;;;;;4995466;28;20074;-89
2022/08/06 02:32:13;;;;;;;10.43;4.82;;;10.50;99.90;;;;;;4961870;28;20117;-89
2022/08/06 02:34:39;;;;;;;12.32;5.20;;;10.50;99.90;;;;;;4978355;28;20145;-90
2022/08/06 02:37:17;;;;;;;9.65;4.85;;;10.50;99.90;;;;;;4983128;28;20078;-89
2022/08/06 02:39:49;;;;;;;12.25;4.72;;;10.50;99.90;;;;;;4994845;28;20130;-90
2022/08/06 02:42:31;;;;;;;9.73;4.65;;;10.40;99.90;;;;;;4978439;28;20046;-89
2022/08/06 02:45:05;;;;;;;11.38;4.70;;;10.40;99.90;;;;;;4978198;28;20038;-90
2022/08/06 02:47:53;;;;;;;10.43;4.85;;;10.40;99.90;;;;;;4995003;28;20046;-90
2022/08/06 02:50:24;;;;;;;10.05;4.82;;;10.40;99.90;;;;;;4977893;28;20050;-89
2022/08/06 02:53:05;;;;;;;11.93;5.07;;;10.40;99.90;;;;;;4995432;28;20400;-89
2022/08/06 02:55:34;;;;;;;11.88;5.05;;;10.40;99.90;;;;;;4994735;28;20453;-90
2022/08/06 02:58:17;;;;;;;9.70;4.75;;;10.30;99.90;;;;;;4978537;28;20093;-90
2022/08/06 03:00:44;;;;;;;10.85;4.40;;;10.30;99.90;;;;;;5016912;28;20042;-90
2022/08/06 03:03:12;;;;;;;9.75;4.50;;;10.40;99.90;;;;;;4994095;28;20057;-91
2022/08/06 03:05:43;;;;;;;11.10;4.38;;;10.30;99.90;;;;;;4984535;28;20050;-89
2022/08/06 03:08:13;;;;;;;12.02;4.50;;;10.30;99.90;;;;;;4997007;28;20046;-89
2022/08/06 03:10:40;;;;;;;11.13;4.50;;;10.30;99.90;;;;;;5006294;28;20089;-89
2022/08/06 03:13:07;;;;;;;9.93;4.72;;;10.30;99.90;;;;;;5019226;28;20045;-89
2022/08/06 03:15:34;;;;;;;9.45;4.13;;;10.30;99.90;;;;;;5008974;28;20053;-89
2022/08/06 03:18:03;;;;;;;10.85;4.25;;;10.20;99.90;;;;;;5003702;28;20049;-89
2022/08/06 03:20:30;;;;;;;10.02;4.30;;;10.20;99.90;;;;;;4978552;28;20121;-89
2022/08/06 03:22:59;;;;;;;9.80;4.05;;;10.10;99.90;;;;;;4993471;28;20050;-89
2022/08/06 03:25:27;;;;;;;9.43;4.53;;;10.10;99.90;;;;;;4977521;28;20085;-89
2022/08/06 03:27:53;;;;;;;10.45;4.70;;;10.10;99.90;;;;;;4994330;28;20482;-90
2022/08/06 03:30:23;;;;;;;10.27;4.22;;;10.00;99.90;;;;;;4976837;28;20050;-89
2022/08/06 03:32:50;;;;;;;8.63;3.83;;;10.00;99.90;;;;;;4977250;28;20042;-89
2022/08/06 03:35:19;;;;;;;12.20;4.00;;;10.00;99.90;;;;;;4977325;28;20078;-90
2022/08/06 03:37:46;;;;;;;10.50;4.22;;;10.00;99.90;;;;;;4976190;28;20045;-89
2022/08/06 03:40:12;;;;;;;10.60;4.15;;;10.00;99.90;;;;;;4994632;28;20046;-89
2022/08/06 03:42:38;;;;;;;9.45;4.00;;;10.00;99.90;;;;;;4993986;28;20042;-89
2022/08/06 03:45:05;;;;;;;10.00;4.15;;;10.00;99.90;;;;;;4994109;28;20042;-89
2022/08/06 03:47:46;;;;;;;9.90;4.30;;;10.00;99.90;;;;;;4994829;28;20057;-90
2022/08/06 03:50:16;;;;;;;10.20;4.20;;;9.90;99.90;;;;;;4993661;28;20046;-90
2022/08/06 03:52:54;;;;;;;9.35;4.00;;;9.90;99.90;;;;;;4977003;28;20051;-89
2022/08/06 03:55:27;;;;;;;10.10;3.55;;;9.90;99.90;;;;;;4978188;28;20054;-90
2022/08/06 03:57:58;;;;;;;9.95;3.90;;;9.90;99.90;;;;;;4975971;28;20070;-90
2022/08/06 04:00:26;;;;;;;12.80;4.30;;;9.90;99.90;;;;;;4976397;28;20058;-90
2022/08/06 04:02:54;;;;;;;10.05;4.00;;;9.90;99.90;;;;;;4976332;28;20046;-89
2022/08/06 04:05:23;;;;;;;10.45;3.90;;;9.90;99.90;;;;;;4991974;28;20566;-90
2022/08/06 04:07:52;;;;;;;10.38;4.30;;;9.90;99.90;;;;;;4975484;28;20054;-89
2022/08/06 04:10:18;;;;;;;10.45;4.07;;;10.60;99.90;;;;;;4976374;28;20058;-89
2022/08/06 04:12:45;;;;;;;8.98;4.00;;;10.00;99.90;;;;;;4979066;28;20457;-89
2022/08/06 04:15:13;;;;;;;9.82;4.00;;;9.90;99.90;;;;;;4993906;28;20058;-89
2022/08/06 04:17:42;;;;;;;11.38;4.35;;;9.90;99.90;;;;;;4993554;28;20105;-90
2022/08/06 04:20:10;;;;;;;10.68;4.03;;;9.90;99.90;;;;;;4993972;28;20097;-90
2022/08/06 04:22:35;;;;;;;10.05;4.30;;;9.80;99.90;;;;;;4998555;28;20125;-89
2022/08/06 04:25:02;;;;;;;11.80;5.20;;;9.80;99.90;;;;;;4994777;28;20085;-89
2022/08/06 04:27:28;;;;;;;11.43;4.47;;;9.70;99.90;;;;;;4976370;28;20050;-90
2022/08/06 04:29:56;;;;;;;10.52;4.45;;;9.70;99.90;;;;;;4975444;28;20054;-89
2022/08/06 04:32:23;;;;;;;10.70;4.57;;;9.70;99.90;;;;;;4975508;28;20043;-90
2022/08/06 04:34:51;;;;;;;9.77;4.70;;;9.70;99.90;;;;;;4992976;23;20538;-89
2022/08/06 04:37:17;;;;;;;11.80;4.53;;;9.80;99.90;;;;;;4975999;28;20096;-89
2022/08/06 04:39:44;;;;;;;13.07;5.10;;;9.70;99.90;;;;;;5010311;28;20061;-89
2022/08/06 04:42:09;;;;;;;11.82;4.72;;;9.70;99.90;;;;;;5000888;28;20046;-90
2022/08/06 04:44:37;;;;;;;10.70;4.40;;;9.80;99.90;;;;;;4993946;28;20375;-89
2022/08/06 04:47:03;;;;;;;10.10;4.90;;;9.80;99.90;;;;;;4975102;28;20582;-89
2022/08/06 04:49:29;;;;;;;11.23;4.70;;;9.90;99.90;;;;;;4975888;28;20413;-89
2022/08/06 04:51:55;;;;;;;11.70;5.25;;;10.00;99.90;;;;;;4993444;28;20039;-89
2022/08/06 04:54:21;;;;;;;11.52;4.93;;;10.10;99.90;;;;;;4975372;28;20050;-89
2022/08/06 04:56:46;;;;;;;11.30;5.13;;;10.10;99.90;;;;;;4975658;28;20084;-90
2022/08/06 04:59:12;;;;;;;11.70;5.47;;;10.20;99.90;;;;;;4975842;28;20097;-90
2022/08/06 05:01:38;;;;;;;12.82;5.22;;;10.30;99.90;;;;;;4992172;28;20117;-90
2022/08/06 05:04:04;;;;;;;13.57;5.70;;;10.30;99.90;;;;;;4975631;28;20058;-89
2022/08/06 05:06:56;;;;;;;15.30;5.65;;;10.40;99.90;;;;;;4975852;28;20045;-90
2022/08/06 05:09:26;;;;;;;12.70;5.10;;;10.50;99.90;;;;;;4975293;28;20057;-89
2022/08/06 05:12:00;;;;;;;11.68;5.03;;;11.20;99.90;;;;;;4981647;28;20070;-89
2022/08/06 05:14:36;;;;;;;10.27;5.00;;;10.60;99.90;;;;;;4974899;28;20058;-90
2022/08/06 05:17:04;;;;;;;11.90;5.53;;;10.70;99.90;;;;;;4975722;28;20046;-90
2022/08/06 05:19:42;;;;;;;11.15;5.80;;;10.80;99.90;;;;;;4976051;28;20042;-89
2022/08/06 05:22:12;;;;;;;13.07;5.63;;;10.90;99.90;;;;;;4974947;28;20047;-89
2022/08/06 05:24:38;;;;;;;11.38;5.22;;;11.00;99.90;;;;;;4993439;28;20372;-89
2022/08/06 05:27:04;;;;;;;12.77;5.35;;;11.10;99.90;;;;;;4993077;28;20046;-89
2022/08/06 05:29:30;;;;;;;11.65;5.45;;;11.20;99.90;;;;;;4974522;28;20524;-88
2022/08/06 05:31:59;;;;;;;11.52;5.03;;;11.20;99.90;;;;;;4975372;28;20039;-87
2022/08/06 05:34:25;;;;;;;11.18;4.43;;;11.40;99.90;;;;;;4992754;28;20057;-82
2022/08/06 05:36:51;;;;;;;11.77;4.53;;;11.50;99.90;;;;;;4991439;28;20055;-82
2022/08/06 05:39:19;;;;;;;10.35;4.20;;;11.70;99.90;;;;;;4975106;28;20093;-82
2022/08/06 05:41:46;;;;;;;10.27;3.83;;;11.80;99.90;;;;;;4975283;28;20126;-82
2022/08/06 05:44:11;;;;;;;8.88;3.30;;;11.90;99.90;;;;;;4974488;28;20141;-82
2022/08/06 05:47:02;;;;;;;8.10;2.80;;;12.00;99.90;;;;;;4995261;28;20465;-83
2022/08/06 05:49:38;;;;;;;8.57;2.97;;;12.30;99.90;;;;;;4977853;28;20100;-83
2022/08/06 05:52:14;;;;;;;6.80;2.50;;;12.20;99.90;;;;;;4996241;28;20049;-82
2022/08/06 05:54:43;;;;;;;9.32;2.70;;;12.30;99.90;;;;;;4996180;28;20054;-81
2022/08/06 05:57:18;;;;;;;7.60;2.80;;;12.50;99.90;;;;;;4978069;28;20513;-82
2022/08/06 06:00:02;;;;;;;7.00;2.40;;;12.60;99.90;;;;;;4978523;28;20038;-82
2022/08/06 06:02:29;;;;;;;7.65;2.38;;;12.80;99.90;;;;;;4978957;28;20049;-82
2022/08/06 06:04:55;;;;;;;9.98;2.53;;;12.80;99.90;;;;;;4977850;28;20101;-82
2022/08/06 06:07:21;;;;;;;8.85;2.47;;;13.00;99.90;;;;;;4980258;28;20246;-84
2022/08/06 06:09:48;;;;;;;6.72;2.45;;;13.10;99.90;;;;;;4989978;28;20030;-83
2022/08/06 06:12:14;;;;;;;7.30;2.60;;;13.10;99.90;;;;;;5018779;28;20105;-85
2022/08/06 06:14:43;;;;;;;7.82;3.08;;;13.20;99.90;;;;;;4998487;28;20126;-87
2022/08/06 06:17:36;;;;;;;7.68;2.70;;;13.50;99.90;;;;;;4985814;28;20093;-86
2022/08/06 06:20:29;;;;;;;8.40;2.95;;;13.30;99.90;;;;;;4996432;28;20062;-83
2022/08/06 06:23:08;;;;;;;8.20;3.03;;;13.40;99.90;;;;;;4995590;28;20173;-83
2022/08/06 06:25:48;;;;;;;8.27;2.90;;;13.40;99.90;;;;;;4977791;28;20138;-83
2022/08/06 06:28:37;;;;;;;7.55;2.97;;;13.50;99.90;;;;;;4995972;28;20045;-83
2022/08/06 06:31:27;;;;;;;7.82;2.83;;;13.50;99.90;;;;;;4977948;28;20058;-82
2022/08/06 06:33:55;;;;;;;7.97;2.97;;;13.70;99.90;;;;;;4977591;28;20453;-83
2022/08/06 06:36:36;;;;;;;8.60;2.85;;;13.80;99.90;;;;;;4995131;23;20046;-83
2022/08/06 06:39:08;;;;;;;8.70;3.80;;;13.90;99.90;;;;;;4977384;28;20118;-84
2022/08/06 06:41:43;;;;;;;8.93;3.80;;;13.90;99.90;;;;;;4978101;28;20051;-85
2022/08/06 06:44:24;;;;;;;10.40;3.65;;;14.10;99.90;;;;;;4977691;28;20050;-84
2022/08/06 06:46:53;;;;;;;6.68;2.65;;;14.10;99.90;;;;;;4976427;28;20081;-85
2022/08/06 06:49:27;;;;;;;8.80;3.00;;;14.30;99.90;;;;;;4977452;28;20565;-84
2022/08/06 06:51:57;;;;;;;7.88;2.70;;;14.40;99.90;;;;;;4994714;28;20048;-84
2022/08/06 06:54:31;;;;;;;7.90;2.58;;;14.50;99.90;;;;;;4989573;28;20048;-84
2022/08/06 06:56:57;;;;;;;6.70;2.50;;;14.50;99.90;;;;;;4965569;28;20046;-84
2022/08/06 06:59:38;;;;;;;9.18;3.45;;;14.60;99.90;;;;;;4971700;28;20417;-84
2022/08/06 07:02:06;;;;;;;8.40;3.47;;;14.80;99.90;;;;;;4966014;28;20042;-84
2022/08/06 07:04:35;;;;;;;8.05;3.75;;;14.80;99.90;;;;;;4985911;28;20038;-86
2022/08/06 07:07:02;;;;;;;8.77;3.40;;;14.90;99.90;;;;;;4984225;28;20081;-85
2022/08/06 07:09:31;;;;;;;9.15;3.38;;;15.10;99.90;;;;;;4986972;28;20097;-85
2022/08/06 07:11:58;;;;;;;8.90;3.00;;;15.20;99.90;;;;;;4987382;28;20086;-86
2022/08/06 07:14:26;;;;;;;7.65;2.83;;;16.10;99.90;;;;;;4946908;28;20054;-85
2022/08/06 07:16:55;;;;;;;7.38;2.75;;;16.30;99.90;;;;;;4970232;28;20226;-89
2022/08/06 07:19:23;;;;;;;6.68;2.40;;;16.20;99.90;;;;;;4980791;28;20038;-90
2022/08/06 07:21:50;;;;;;;6.55;2.33;;;15.70;99.90;;;;;;4978895;28;20049;-88
2022/08/06 07:24:17;;;;;;;6.55;2.50;;;15.90;99.90;;;;;;4995047;28;20487;-88
2022/08/06 07:33:04;;;;;;;;;;;16.40;99.90;;;;;;4954018;28;20062;-85
2022/08/06 07:35:50;;;;;;;5.38;1.90;;;16.50;99.90;;;;;;4937076;29;19922;-86
2022/08/06 07:38:31;;;;;;;5.72;2.00;;;16.60;99.90;;;;;;4953629;28;20059;-86
2022/08/06 07:41:05;;;;;;;5.65;1.55;;;16.80;99.90;;;;;;4954632;28;20109;-87
2022/08/06 07:44:12;;;;;;;6.47;1.60;;;16.90;99.90;;;;;;4956175;28;20058;-87
2022/08/06 07:46:41;;;;;;;6.15;1.80;;;17.00;99.90;;;;;;4972768;28;20062;-87
2022/08/06 07:49:24;;;;;;;5.57;1.40;;;17.10;99.90;;;;;;4973340;28;20098;-87
2022/08/06 07:52:16;;;;;;;4.63;1.40;;;17.30;99.90;;;;;;4984053;28;20049;-87
2022/08/06 07:54:42;;;;;;;5.38;1.60;;;17.10;99.90;;;;;;4956086;28;20055;-87
2022/08/06 07:57:10;;;;;;;4.32;1.60;;;18.40;99.90;;;;;;4971648;28;20096;-87
2022/08/06 07:59:54;;;;;;;4.43;1.60;;;18.40;99.90;;;;;;4956123;28;20090;-85
2022/08/06 08:02:21;;;;;;;5.75;1.40;;;17.40;99.90;;;;;;4957112;28;20047;-83
2022/08/06 08:07:51;;;;;;;4.75;1.65;;;17.80;99.90;;;;;;4975579;28;20486;-82
2022/08/06 08:10:17;;;;;;;3.55;1.40;;;18.00;99.90;;;;;;4992929;28;20046;-82
2022/08/06 08:12:43;;;;;;;4.63;1.67;;;18.10;99.90;;;;;;4993560;28;20117;-82
2022/08/06 08:15:09;;;;;;;5.07;1.40;;;18.30;99.90;;;;;;4976128;28;20068;-82
2022/08/06 08:17:35;;;;;;;4.32;1.40;;;18.40;99.90;;;;;;4993097;28;20463;-82
2022/08/06 08:20:04;;;;;;;4.72;1.30;;;18.50;99.90;;;;;;4975899;28;20046;-82
2022/08/06 08:22:29;;;;;;;4.93;1.50;;;18.10;99.90;;;;;;4993769;28;20085;-82
2022/08/06 08:24:55;;;;;;;5.18;1.40;;;18.10;99.90;;;;;;4975020;28;20070;-82
2022/08/06 08:27:21;;;;;;;3.80;1.23;;;18.30;99.90;;;;;;4993366;28;20129;-82
2022/08/06 08:29:47;;;;;;;6.28;1.30;;;19.00;99.90;;;;;;4975581;28;20465;-82
2022/08/06 08:32:12;;;;;;;5.68;1.30;;;18.70;99.90;;;;;;4992525;28;20133;-82
2022/08/06 08:34:38;;;;;;;5.53;1.38;;;19.30;99.90;;;;;;4976170;28;20073;-82
2022/08/06 08:37:04;;;;;;;4.15;1.30;;;19.00;99.90;;;;;;4993250;28;20056;-82
2022/08/06 08:39:30;;;;;;;5.38;1.40;;;19.10;99.90;;;;;;4975108;28;20073;-81
2022/08/06 08:42:15;;;;;;;4.82;1.30;;;19.20;99.90;;;;;;4992990;28;20078;-83
2022/08/06 08:44:42;;;;;;;4.13;1.30;;;19.10;99.90;;;;;;4975616;28;20092;-82
2022/08/06 08:47:09;;;;;;;3.78;1.65;;;19.00;99.90;;;;;;4974957;28;20425;-83
2022/08/06 08:49:52;;;;;;;3.90;1.30;;;18.80;99.90;;;;;;4992788;28;20402;-83
2022/08/06 08:52:27;;;;;;;4.30;1.38;;;19.00;99.90;;;;;;4992260;28;20133;-89
2022/08/06 08:54:58;;;;;;;5.03;1.45;;;19.10;99.90;;;;;;4975186;28;20039;-86
2022/08/06 08:57:26;;;;;;;4.53;1.30;;;19.40;99.90;;;;;;4975447;28;20442;-85
2022/08/06 08:59:52;;;;;;;4.88;1.45;;;19.90;99.90;;;;;;4975106;28;20050;-85
2022/08/06 09:02:36;;;;;;;4.40;1.13;;;19.80;99.90;;;;;;4975723;28;20051;-86
2022/08/06 09:05:02;;;;;;;3.33;1.42;;;19.70;99.90;;;;;;4992308;28;20046;-85
2022/08/06 09:07:43;;;;;;;3.83;1.38;;;19.50;99.90;;;;;;4975378;28;20448;-85
2022/08/06 09:10:11;;;;;;;3.28;1.30;;;19.50;99.90;;;;;;5001126;28;20049;-85
2022/08/06 09:12:47;;;;;;;3.95;1.30;;;20.30;99.90;;;;;;4983585;28;20101;-84
2022/08/06 09:15:15;;;;;;;3.15;1.30;;;19.80;99.90;;;;;;4975726;28;20089;-85
2022/08/06 09:17:50;;;;;;;3.45;1.48;;;20.00;99.90;;;;;;4993203;28;20062;-84
2022/08/06 09:20:16;;;;;;;5.47;1.55;;;20.20;99.90;;;;;;4975322;28;20038;-84
2022/08/06 09:22:50;;;;;;;5.25;1.40;;;20.50;99.90;;;;;;4980037;28;20137;-85
2022/08/06 09:25:40;;;;;;;7.47;1.50;;;20.70;99.90;;;;;;4981530;28;20065;-84
2022/08/06 09:28:26;;;;;;;5.32;1.55;;;20.70;99.90;;;;;;4995623;28;20572;-84
2022/08/06 09:31:04;;;;;;;4.30;1.40;;;20.60;99.90;;;;;;4976248;28;20054;-84
2022/08/06 09:34:13;;;;;;;2.90;1.20;;;20.40;99.90;;;;;;4978373;28;20053;-84
2022/08/06 09:36:56;;;;;;;4.28;1.40;;;20.10;99.90;;;;;;4987362;28;20046;-83
2022/08/06 09:39:35;;;;;;;4.57;1.50;;;20.00;99.90;;;;;;4977604;28;20474;-83
2022/08/06 09:42:12;;;;;;;4.78;1.60;;;19.90;99.90;;;;;;4958594;28;20511;-82
2022/08/06 09:44:38;;;;;;;4.65;1.42;;;20.80;99.90;;;;;;4977233;28;20042;-83
2022/08/06 09:47:06;;;;;;;4.45;1.50;;;19.70;99.90;;;;;;4976230;28;20049;-83
2022/08/06 09:49:44;;;;;;;6.18;1.50;;;19.70;99.90;;;;;;4958478;28;20050;-83
2022/08/06 09:52:18;;;;;;;5.55;1.30;;;20.50;99.90;;;;;;4959393;28;20038;-82
2022/08/06 09:54:56;;;;;;;5.50;1.40;;;19.70;99.90;;;;;;4976542;28;20497;-83
2022/08/06 09:59:49;;;;;;;5.63;1.48;;;19.80;99.90;;;;;;5030165;23;20043;-83
2022/08/06 10:02:17;;;;;;;3.13;1.30;;;20.90;99.90;;;;;;4975103;28;20050;-83
2022/08/06 10:05:09;;;;;;;4.45;1.35;;;20.80;99.90;;;;;;4974272;28;20039;-83
2022/08/06 10:07:44;;;;;;;3.92;1.42;;;20.90;99.90;;;;;;4975346;28;20055;-83
2022/08/06 10:10:58;;;;;;;3.10;1.40;;;21.80;99.90;;;;;;4974472;28;20402;-82
2022/08/06 10:13:26;;;;;;;3.47;1.42;;;21.50;99.90;;;;;;4974483;28;20043;-86
2022/08/06 10:16:28;;;;;;;;;;;;;;;;;;;;;
2022/08/06 10:18:54;;;;;;;4.88;1.50;;;21.80;98.20;;;;;;4972810;28;20059;-85
2022/08/06 10:21:36;;;;;;;3.28;1.30;;;21.60;99.90;;;;;;4974862;28;20479;-85
2022/08/06 10:24:04;;;;;;;6.65;1.50;;;21.50;99.90;;;;;;4974164;28;20047;-83
2022/08/06 10:26:50;;;;;;;4.03;1.40;;;21.00;99.70;;;;;;4975648;28;20043;-85
2022/08/06 10:29:18;;;;;;;4.93;1.45;;;21.00;98.40;;;;;;4975261;28;20058;-83
2022/08/06 10:31:46;;;;;;;4.38;1.50;;;20.50;99.70;;;;;;4973239;28;20122;-84
2022/08/06 10:34:39;;;;;;;3.47;1.50;;;20.40;99.70;;;;;;4976156;28;20126;-83
2022/08/06 10:37:07;;;;;;;3.75;1.40;;;21.10;98.60;;;;;;4974242;28;20126;-85
2022/08/06 10:39:41;;;;;;;6.30;1.80;;;21.70;99.30;;;;;;4973670;28;20407;-79
2022/08/06 10:42:08;;;;;;;6.20;1.95;;;21.50;97.10;;;;;;4973862;28;20121;-84
2022/08/06 10:44:34;;;;;;;6.65;2.00;;;20.40;98.00;;;;;;4973982;28;20510;-87
2022/08/06 10:47:02;;;;;;;7.72;2.10;;;20.20;98.80;;;;;;4975280;28;20047;-85
2022/08/06 10:49:29;;;;;;;5.95;2.10;;;20.20;98.50;;;;;;4974458;28;20116;-85
2022/08/06 10:52:12;;;;;;;6.45;2.00;;;20.50;98.80;;;;;;4973017;28;20047;-85
2022/08/06 10:54:40;;;;;;;4.80;1.77;;;19.80;98.20;;;;;;4976016;28;20138;-85
2022/08/06 10:57:13;;;;;;;8.00;2.20;;;19.80;98.30;;;;;;4981676;28;20050;-85
2022/08/06 10:59:43;;;;;;;6.30;2.00;;;20.20;98.30;;;;;;4977227;28;20058;-85
2022/08/06 11:02:57;;;;;;;5.10;1.90;;;20.40;98.30;;;;;;4972155;28;20047;-85
2022/08/06 11:05:48;;;;;;;9.32;2.28;;;19.70;98.60;;;;;;4958074;28;20058;-85
2022/08/06 11:08:38;;;;;;;5.60;1.90;;;19.50;99.60;;;;;;4975578;28;20491;-86
2022/08/06 11:11:32;;;;;;;6.22;1.88;;;19.80;99.80;;;;;;4971707;28;20498;-86
2022/08/06 11:14:10;;;;;;;6.18;1.80;;;20.20;99.90;;;;;;4969969;28;20101;-86
2022/08/06 11:16:39;;;;;;;5.80;1.80;;;20.90;99.90;;;;;;4967318;28;20082;-87
2022/08/06 11:19:36;;;;;;;4.18;1.70;;;20.60;99.70;;;;;;4973712;28;20042;-88
2022/08/06 11:22:41;;;;;;;7.28;2.10;;;20.80;99.90;;;;;;4970833;28;20460;-87
2022/08/06 11:31:51;;;;;;;6.55;1.95;;;20.50;99.20;;;;;;4973059;28;20066;-86
2022/08/06 11:34:22;;;;;;;6.78;1.85;;;21.30;99.90;;;;;;4992805;28;20133;-85
2022/08/06 11:37:03;;;;;;;8.77;2.00;;;21.20;99.90;;;;;;4975861;28;20442;-84
2022/08/06 11:40:16;;;;;;;5.97;2.00;;;21.30;99.90;;;;;;4975465;28;20049;-84
2022/08/06 11:42:43;;;;;;;6.20;2.00;;;21.10;99.90;;;;;;4990614;28;20441;-84
2022/08/06 11:45:08;;;;;;;6.40;1.90;;;21.90;99.50;;;;;;4975863;28;20045;-85
2022/08/06 11:48:21;;;;;;;5.90;2.00;;;22.60;99.00;;;;;;4976655;28;20038;-87
2022/08/06 11:50:46;;;;;;;6.38;1.90;;;22.50;97.80;;;;;;4976073;28;20100;-86
2022/08/06 11:53:16;;;;;;;6.75;2.10;;;23.00;97.60;;;;;;4977134;28;20042;-87
2022/08/06 11:56:04;;;;;;;7.15;2.10;;;23.30;97.60;;;;;;4993410;28;20074;-88
2022/08/06 11:58:47;;;;;;;7.22;2.17;;;23.40;96.70;;;;;;4976337;28;20096;-88
2022/08/06 12:01:16;;;;;;;6.20;2.10;;;23.20;96.30;;;;;;4994105;28;20034;-88
2022/08/06 12:03:46;;;;;;;6.72;1.92;;;23.40;96.40;;;;;;4996408;28;20046;-87
2022/08/06 12:06:37;;;;;;;7.68;2.22;;;23.00;95.40;;;;;;4977136;28;20128;-87
2022/08/06 12:09:06;;;;;;;7.65;2.22;;;22.70;95.20;;;;;;4990577;28;20416;-87
2022/08/06 12:11:41;;;;;;;7.55;2.58;;;22.40;94.80;;;;;;4998698;28;20057;-87
2022/08/06 12:14:50;;;;;;;8.43;2.10;;;22.10;95.20;;;;;;4978962;28;20105;-88
2022/08/06 12:17:30;;;;;;;7.72;2.17;;;22.00;94.60;;;;;;4976235;28;20045;-87
2022/08/06 12:20:02;;;;;;;6.57;2.00;;;22.70;95.20;;;;;;4975805;28;20050;-88
2022/08/06 12:23:08;;;;;;;7.60;2.10;;;21.80;95.50;;;;;;4967885;28;20086;-88
2022/08/06 12:26:25;;;;;;;5.93;1.90;;;22.10;95.90;;;;;;4975557;28;20155;-89
2022/08/06 12:32:39;;;;;;;6.85;2.10;;;22.30;95.30;;;;;;4990001;28;20110;-90
2022/08/06 12:35:14;;;;;;;5.38;1.90;;;22.30;94.20;;;;;;4956846;28;20061;-85
2022/08/06 12:37:42;;;;;;;6.07;2.00;;;23.00;94.70;;;;;;4955923;28;20163;-87
2022/08/06 12:40:27;;;;;;;6.63;2.00;;;23.10;94.80;;;;;;5040129;23;20132;-87
2022/08/06 12:43:01;;;;;;;5.72;1.85;;;22.60;94.40;;;;;;4990936;28;20058;-87
2022/08/06 12:45:43;;;;;;;5.97;2.00;;;22.90;94.10;;;;;;4974771;28;20042;-90
2022/08/06 12:48:10;;;;;;;6.40;2.03;;;22.60;93.90;;;;;;4976000;28;20564;-89
2022/08/06 12:50:48;;;;;;;7.18;2.13;;;22.60;94.00;;;;;;4975595;28;20054;-88
2022/08/06 12:53:16;;;;;;;7.40;2.20;;;23.20;93.10;;;;;;4991662;28;20055;-84
2022/08/06 12:56:00;;;;;;;7.60;2.00;;;23.30;92.80;;;;;;4993099;28;20038;-83
2022/08/06 12:58:45;;;;;;;4.70;1.65;;;23.40;92.80;;;;;;4992189;28;20050;-84
2022/08/06 13:01:29;;;;;;;6.93;2.20;;;23.00;92.00;;;;;;5001747;28;20061;-84
2022/08/06 13:04:13;;;;;;;6.80;2.08;;;22.70;91.80;;;;;;4986556;28;20046;-84
2022/08/06 13:06:39;;;;;;;5.78;2.00;;;23.30;92.10;;;;;;4982900;28;20046;-84
2022/08/06 13:09:08;;;;;;;6.45;2.10;;;23.20;92.30;;;;;;4982952;28;20038;-80
2022/08/06 13:11:34;;;;;;;6.45;2.00;;;22.80;91.70;;;;;;4999265;28;20045;-82
2022/08/06 13:14:11;;;;;;;6.47;1.90;;;22.80;91.50;;;;;;5005352;28;20389;-81
2022/08/06 13:16:39;;;;;;;7.07;2.05;;;22.90;91.20;;;;;;5012608;28;20046;-85
2022/08/06 13:19:10;;;;;;;6.28;2.00;;;22.90;90.70;;;;;;4994713;28;20112;-83
2022/08/06 13:21:37;;;;;;;5.07;1.80;;;23.00;90.00;;;;;;4994300;28;20147;-83
2022/08/06 13:24:04;;;;;;;4.90;1.80;;;22.90;89.90;;;;;;4994445;28;20073;-84
2022/08/06 13:26:32;;;;;;;6.72;1.77;;;22.80;90.00;;;;;;4985352;28;20046;-84
2022/08/06 13:29:14;;;;;;;6.32;2.08;;;22.70;88.60;;;;;;4974738;28;20043;-84
2022/08/06 13:31:41;;;;;;;6.45;2.00;;;22.60;88.70;;;;;;4975320;28;20130;-84
2022/08/06 13:34:12;;;;;;;5.55;1.90;;;22.90;89.60;;;;;;4974011;28;20051;-85
2022/08/06 13:36:54;;;;;;;6.00;1.80;;;23.30;88.80;;;;;;4992682;28;20513;-82
2022/08/06 13:39:23;;;;;;;6.32;2.25;;;23.60;88.90;;;;;;4992152;28;20101;-79